Jardine, Montana
Current Conditions -  °F | °C
As of 5:53 AM on Saturday 25 Oct 2014 (Local Time) from KLVM Reporting Station
Clear Clear  
Wind Chill: 25°   Ceiling: Unl
Heat Index: 31°   Visibility: 10mi
Dew Point: 29°   Wind: 6mph
Humidity: 92%   Direction: 320°NW
Pressure: 30.06"   Gusts: NA
Location:  45.0924°N, 110.236°W
Report Text: KLVM 251153Z AUTO 32005KT 10SM CLR M01/M02 A3006 RMK AO2 SLP187 I1000 I6000 T10061017 10044 21011 58011
Loading
Personal Weather Stations






























Interactive Weather Map
Tropical Storm Tracking
New forecast layout! Learn more

10-Day Weather Forecast

Advertisements
Track Severe Weather on mobile